createdAt,value
2022-10-08T00:04:07.109Z,15.86
2022-10-08T00:09:09.924Z,18.52
2022-10-08T00:14:13.123Z,18.48
2022-10-08T00:19:16.429Z,17.07
2022-10-08T00:24:21.317Z,16.26
2022-10-08T00:29:24.614Z,15.67
2022-10-08T00:34:27.772Z,15.20
2022-10-08T00:39:30.554Z,14.77
2022-10-08T00:44:57.812Z,14.43
2022-10-08T00:50:05.293Z,15.51
2022-10-08T00:55:10.088Z,18.26
2022-10-08T01:00:25.694Z,18.09
2022-10-08T01:05:41.073Z,16.69
2022-10-08T01:10:58.648Z,15.88
2022-10-08T01:16:39.044Z,15.28
2022-10-08T01:21:49.773Z,14.76
2022-10-08T01:27:20.825Z,14.37
2022-10-08T01:32:35.143Z,15.41
2022-10-08T01:37:41.964Z,18.15
2022-10-08T01:42:46.344Z,17.80
2022-10-08T01:47:51.161Z,16.42
2022-10-08T01:53:00.828Z,15.60
2022-10-08T01:58:08.431Z,14.98
2022-10-08T02:03:11.442Z,14.50
2022-10-08T02:08:14.504Z,14.11
2022-10-08T02:13:18.140Z,13.81
2022-10-08T02:18:35.714Z,14.68
2022-10-08T02:23:46.295Z,17.54
2022-10-08T02:29:01.428Z,17.22
2022-10-08T02:34:11.881Z,15.87
2022-10-08T02:39:19.246Z,15.08
2022-10-08T02:44:37.041Z,14.53
2022-10-08T02:49:43.709Z,14.08
2022-10-08T02:54:50.483Z,13.72
2022-10-08T02:59:53.608Z,13.41
2022-10-08T03:05:01.714Z,14.32
2022-10-08T03:10:07.076Z,17.20
2022-10-08T03:15:13.294Z,17.39
2022-10-08T03:20:16.368Z,15.91
2022-10-08T03:25:19.233Z,15.06
2022-10-08T03:30:22.273Z,14.46
2022-10-08T03:35:25.331Z,13.98
2022-10-08T03:40:28.372Z,13.59
2022-10-08T03:45:31.346Z,13.26
2022-10-08T03:50:34.191Z,14.24
2022-10-08T03:55:37.119Z,17.20
2022-10-08T04:00:40.914Z,17.03
2022-10-08T04:05:49.388Z,15.56
2022-10-08T04:10:53.370Z,14.70
2022-10-08T04:16:01.445Z,14.11
2022-10-08T04:21:07.488Z,13.61
2022-10-08T04:26:13.033Z,13.19
2022-10-08T04:31:21.978Z,12.84
2022-10-08T04:36:25.829Z,12.57
2022-10-08T04:41:28.913Z,13.57
2022-10-08T04:46:31.913Z,16.62
2022-10-08T04:51:34.849Z,16.46
2022-10-08T04:56:37.795Z,15.04
2022-10-08T05:01:41.238Z,14.25
2022-10-08T05:06:44.185Z,14.06
2022-10-08T05:11:47.112Z,13.79
2022-10-08T05:16:49.959Z,13.37
2022-10-08T05:21:52.771Z,12.96
2022-10-08T05:26:59.377Z,12.64
2022-10-08T05:32:03.897Z,13.70
2022-10-08T05:37:06.782Z,16.71
2022-10-08T05:42:09.915Z,16.40
2022-10-08T05:47:12.781Z,15.06
2022-10-08T05:52:15.864Z,14.32
2022-10-08T05:57:18.847Z,13.79
2022-10-08T06:02:22.353Z,13.39
2022-10-08T06:07:25.371Z,13.05
2022-10-08T06:12:28.385Z,13.93
2022-10-08T06:17:32.605Z,16.98
2022-10-08T06:22:35.927Z,17.15
2022-10-08T06:27:38.777Z,15.82
2022-10-08T06:32:41.579Z,15.30
2022-10-08T06:37:48.451Z,15.04
2022-10-08T06:42:52.026Z,14.67
2022-10-08T06:47:54.905Z,14.35
2022-10-08T06:52:57.786Z,15.33
2022-10-08T06:58:02.033Z,18.60
2022-10-08T07:03:05.149Z,19.07
2022-10-08T07:08:07.981Z,17.72
2022-10-08T07:13:10.873Z,16.99
2022-10-08T07:18:13.845Z,16.57
2022-10-08T07:23:16.968Z,16.63
2022-10-08T07:28:20.010Z,19.75
2022-10-08T07:33:23.017Z,20.28
2022-10-08T07:38:25.827Z,19.52
2022-10-08T07:43:28.675Z,18.97
2022-10-08T07:48:34.018Z,18.45
2022-10-08T07:53:38.047Z,18.02
2022-10-08T07:58:41.963Z,17.65
2022-10-08T08:03:45.347Z,17.34
2022-10-08T08:08:48.302Z,17.11
2022-10-08T08:13:52.249Z,18.16
2022-10-08T08:18:57.935Z,20.84
2022-10-08T08:24:06.106Z,20.41
2022-10-08T08:29:14.884Z,19.42
2022-10-08T08:34:24.385Z,19.05
2022-10-08T08:39:28.700Z,18.78
2022-10-08T08:44:43.660Z,18.64
2022-10-08T08:49:52.453Z,18.49
2022-10-08T08:54:55.540Z,19.57
2022-10-08T09:00:07.563Z,22.49
2022-10-08T09:05:17.343Z,22.89
2022-10-08T09:10:29.413Z,21.70
2022-10-08T09:15:37.097Z,21.08
2022-10-08T09:20:41.063Z,20.70
2022-10-08T09:26:08.155Z,20.34
2022-10-08T09:31:23.096Z,20.04
2022-10-08T09:36:31.499Z,19.78
2022-10-08T09:41:34.428Z,19.61
2022-10-08T09:46:37.513Z,19.57
2022-10-08T09:51:43.019Z,19.54
2022-10-08T09:56:53.977Z,19.50
2022-10-08T10:01:58.179Z,19.47
2022-10-08T10:07:01.551Z,19.49
2022-10-08T10:12:17.591Z,19.53
2022-10-08T10:17:38.587Z,19.62
2022-10-08T10:22:50.480Z,19.75
2022-10-08T10:28:02.892Z,19.91
2022-10-08T10:33:15.886Z,20.02
2022-10-08T10:38:27.777Z,20.11
2022-10-08T10:43:49.501Z,20.18
2022-10-08T10:48:52.586Z,20.23
2022-10-08T10:54:16.342Z,20.27
2022-10-08T10:59:45.399Z,20.31
2022-10-08T11:05:19.312Z,20.36
2022-10-08T11:10:49.025Z,20.39
2022-10-08T11:16:05.945Z,20.44
2022-10-08T11:21:17.864Z,20.49
2022-10-08T11:26:37.969Z,20.53
2022-10-08T11:31:44.346Z,20.57
2022-10-08T11:37:15.055Z,20.67
2022-10-08T11:42:29.127Z,20.84
2022-10-08T11:47:36.323Z,20.96
2022-10-08T11:52:39.407Z,21.03
2022-10-08T11:58:06.743Z,21.12
2022-10-08T12:03:40.331Z,21.23
2022-10-08T12:09:21.480Z,21.26
2022-10-08T12:14:24.307Z,21.30
2022-10-08T12:19:32.688Z,21.31
2022-10-08T12:24:38.341Z,21.33
2022-10-08T12:30:03.429Z,21.36
2022-10-08T12:35:26.328Z,21.39
2022-10-08T12:40:44.070Z,21.41
2022-10-08T12:45:55.659Z,21.43
2022-10-08T12:51:30.304Z,21.47
2022-10-08T12:56:33.158Z,21.56
2022-10-08T13:01:36.443Z,21.67
2022-10-08T13:06:39.457Z,21.81
2022-10-08T13:11:42.798Z,21.94
2022-10-08T13:16:47.406Z,22.08
2022-10-08T13:21:58.971Z,22.14
2022-10-08T13:27:02.098Z,22.14
2022-10-08T13:32:18.485Z,22.08
2022-10-08T13:37:21.348Z,22.01
2022-10-08T13:42:28.603Z,21.93
2022-10-08T13:47:31.467Z,21.87
2022-10-08T13:52:35.431Z,21.82
2022-10-08T13:57:38.282Z,21.77
2022-10-08T14:02:41.247Z,21.72
2022-10-08T14:07:46.554Z,21.66
2022-10-08T14:12:49.765Z,21.63
2022-10-08T14:17:53.585Z,21.59
2022-10-08T14:22:56.449Z,21.54
2022-10-08T14:28:00.054Z,21.48
2022-10-08T14:33:04.753Z,21.44
2022-10-08T14:38:10.596Z,21.38
2022-10-08T14:43:13.463Z,21.33
2022-10-08T14:48:16.666Z,21.27
2022-10-08T14:53:19.523Z,21.22
2022-10-08T14:58:22.455Z,21.16
2022-10-08T15:03:26.206Z,21.11
2022-10-08T15:08:29.307Z,21.05
2022-10-08T15:13:32.656Z,20.98
2022-10-08T15:18:35.890Z,20.91
2022-10-08T15:23:38.752Z,20.84
2022-10-08T15:28:43.374Z,20.77
2022-10-08T15:33:48.829Z,20.70
2022-10-08T15:39:18.051Z,20.62
2022-10-08T15:44:25.308Z,20.55
2022-10-08T15:49:37.215Z,20.45
2022-10-08T15:54:41.399Z,20.37
2022-10-08T15:59:44.450Z,20.29
2022-10-08T16:04:47.924Z,20.24
2022-10-08T16:09:51.144Z,20.17
2022-10-08T16:14:54.111Z,20.12
2022-10-08T16:19:57.558Z,20.06
2022-10-08T16:25:00.477Z,19.97
2022-10-08T16:30:04.160Z,19.89
2022-10-08T16:35:07.422Z,19.81
2022-10-08T16:40:10.949Z,19.76
2022-10-08T16:45:13.938Z,19.71
2022-10-08T16:50:20.075Z,19.66
2022-10-08T16:55:23.097Z,19.62
2022-10-08T17:00:26.087Z,19.60
2022-10-08T17:05:29.299Z,19.56
2022-10-08T17:10:32.540Z,19.52
2022-10-08T17:15:36.975Z,19.48
2022-10-08T17:20:41.349Z,19.44
2022-10-08T17:25:44.253Z,19.38
2022-10-08T17:30:47.197Z,19.32
2022-10-08T17:35:59.219Z,19.27
2022-10-08T17:41:14.256Z,19.24
2022-10-08T17:46:28.551Z,20.34
2022-10-08T17:51:32.656Z,22.34
2022-10-08T17:56:35.664Z,21.39
2022-10-08T18:01:41.434Z,20.79
2022-10-08T18:06:48.809Z,20.41
2022-10-08T18:11:53.571Z,20.10
2022-10-08T18:16:57.549Z,19.80
2022-10-08T18:22:00.564Z,19.54
2022-10-08T18:27:06.613Z,19.31
2022-10-08T18:32:09.525Z,19.08
2022-10-08T18:37:12.447Z,18.93
2022-10-08T18:42:15.315Z,19.90
2022-10-08T18:47:18.204Z,22.56
2022-10-08T18:52:27.240Z,22.00
2022-10-08T18:57:30.299Z,20.79
2022-10-08T19:02:33.417Z,20.11
2022-10-08T19:07:36.569Z,19.57
2022-10-08T19:12:39.499Z,19.15
2022-10-08T19:17:42.440Z,19.59
2022-10-08T19:22:45.931Z,22.26
2022-10-08T19:27:49.066Z,22.01
2022-10-08T19:32:52.348Z,20.75
2022-10-08T19:37:55.248Z,19.98
2022-10-08T19:42:58.174Z,19.49
2022-10-08T19:48:00.997Z,19.12
2022-10-08T19:53:04.413Z,18.83
2022-10-08T19:58:07.518Z,19.75
2022-10-08T20:03:10.438Z,22.37
2022-10-08T20:08:13.356Z,22.01
2022-10-08T20:13:16.236Z,20.84
2022-10-08T20:18:19.137Z,20.14
2022-10-08T20:23:22.288Z,19.61
2022-10-08T20:28:25.235Z,19.20
2022-10-08T20:33:28.203Z,18.85
2022-10-08T20:38:31.075Z,19.80
2022-10-08T20:43:36.558Z,22.56
2022-10-08T20:48:41.394Z,22.35
2022-10-08T20:53:49.319Z,21.01
2022-10-08T20:58:52.907Z,20.29
2022-10-08T21:03:56.289Z,19.79
2022-10-08T21:08:59.539Z,19.40
2022-10-08T21:14:03.687Z,19.06
2022-10-08T21:19:12.734Z,18.78
2022-10-08T21:24:15.826Z,19.74
2022-10-08T21:29:18.887Z,22.38
2022-10-08T21:34:21.886Z,21.98
2022-10-08T21:39:24.729Z,20.80
2022-10-08T21:44:27.632Z,20.13
2022-10-08T21:49:30.689Z,19.64
2022-10-08T21:54:33.977Z,19.26
2022-10-08T21:59:37.187Z,18.91
2022-10-08T22:04:40.279Z,19.74
2022-10-08T22:09:43.131Z,22.26
2022-10-08T22:14:46.194Z,21.63
2022-10-08T22:19:49.220Z,20.45
2022-10-08T22:24:54.703Z,19.75
2022-10-08T22:29:57.607Z,19.22
2022-10-08T22:35:00.438Z,18.77
2022-10-08T22:40:03.972Z,19.60
2022-10-08T22:45:07.461Z,22.15
2022-10-08T22:50:10.427Z,21.69
2022-10-08T22:55:14.337Z,20.39
2022-10-08T23:00:17.315Z,19.63
2022-10-08T23:05:20.294Z,19.12
2022-10-08T23:10:24.107Z,18.71
2022-10-08T23:15:26.950Z,18.38
2022-10-08T23:20:29.820Z,19.29
2022-10-08T23:25:32.806Z,21.94
2022-10-08T23:30:43.113Z,21.52
2022-10-08T23:35:54.599Z,20.29
2022-10-08T23:41:02.442Z,19.56
2022-10-08T23:46:07.604Z,19.07
2022-10-08T23:51:12.562Z,18.68
2022-10-08T23:56:15.896Z,18.35
